sensor_id;sensor_type;location;lat;lon;timestamp;temperature;humidity
14585;DHT22;7379;51.506;11.876;2022-11-03T00:00:33;11.50;81.70
14585;DHT22;7379;51.506;11.876;2022-11-03T00:03:00;11.50;81.70
14585;DHT22;7379;51.506;11.876;2022-11-03T00:05:26;11.50;81.80
14585;DHT22;7379;51.506;11.876;2022-11-03T00:08:11;11.50;81.80
14585;DHT22;7379;51.506;11.876;2022-11-03T00:10:37;11.50;81.80
14585;DHT22;7379;51.506;11.876;2022-11-03T00:13:05;11.50;81.70
14585;DHT22;7379;51.506;11.876;2022-11-03T00:15:32;11.50;81.80
14585;DHT22;7379;51.506;11.876;2022-11-03T00:17:59;11.50;81.80
14585;DHT22;7379;51.506;11.876;2022-11-03T00:20:25;11.50;81.80
14585;DHT22;7379;51.506;11.876;2022-11-03T00:22:52;11.50;81.80
14585;DHT22;7379;51.506;11.876;2022-11-03T00:25:19;11.50;81.80
14585;DHT22;7379;51.506;11.876;2022-11-03T00:27:45;11.40;81.80
14585;DHT22;7379;51.506;11.876;2022-11-03T00:30:20;11.40;81.80
14585;DHT22;7379;51.506;11.876;2022-11-03T00:32:47;11.40;81.80
14585;DHT22;7379;51.506;11.876;2022-11-03T00:35:14;11.40;81.80
14585;DHT22;7379;51.506;11.876;2022-11-03T00:37:40;11.40;81.80
14585;DHT22;7379;51.506;11.876;2022-11-03T00:40:08;11.40;81.80
14585;DHT22;7379;51.506;11.876;2022-11-03T00:42:36;11.40;81.90
14585;DHT22;7379;51.506;11.876;2022-11-03T00:45:04;11.40;82.60
14585;DHT22;7379;51.506;11.876;2022-11-03T00:47:32;11.40;81.80
14585;DHT22;7379;51.506;11.876;2022-11-03T00:49:58;11.40;81.80
14585;DHT22;7379;51.506;11.876;2022-11-03T00:52:25;11.30;81.70
14585;DHT22;7379;51.506;11.876;2022-11-03T00:54:52;11.30;81.80
14585;DHT22;7379;51.506;11.876;2022-11-03T00:57:19;11.30;81.80
14585;DHT22;7379;51.506;11.876;2022-11-03T00:59:45;11.30;81.80
14585;DHT22;7379;51.506;11.876;2022-11-03T01:02:12;11.30;81.80
14585;DHT22;7379;51.506;11.876;2022-11-03T01:04:40;11.30;81.80
14585;DHT22;7379;51.506;11.876;2022-11-03T01:07:24;11.30;81.80
14585;DHT22;7379;51.506;11.876;2022-11-03T01:09:51;11.30;81.80
14585;DHT22;7379;51.506;11.876;2022-11-03T01:12:18;11.30;81.80
14585;DHT22;7379;51.506;11.876;2022-11-03T01:14:47;11.20;81.70
14585;DHT22;7379;51.506;11.876;2022-11-03T01:17:15;11.30;81.80
14585;DHT22;7379;51.506;11.876;2022-11-03T01:19:44;11.20;81.70
14585;DHT22;7379;51.506;11.876;2022-11-03T01:22:12;11.20;81.70
14585;DHT22;7379;51.506;11.876;2022-11-03T01:24:40;11.20;81.80
14585;DHT22;7379;51.506;11.876;2022-11-03T01:27:07;11.20;81.70
14585;DHT22;7379;51.506;11.876;2022-11-03T01:29:34;11.20;81.70
14585;DHT22;7379;51.506;11.876;2022-11-03T01:32:01;11.10;81.60
14585;DHT22;7379;51.506;11.876;2022-11-03T01:34:27;11.20;81.80
14585;DHT22;7379;51.506;11.876;2022-11-03T01:36:55;11.10;81.60
14585;DHT22;7379;51.506;11.876;2022-11-03T01:39:22;11.10;81.70
14585;DHT22;7379;51.506;11.876;2022-11-03T01:41:50;11.10;81.60
14585;DHT22;7379;51.506;11.876;2022-11-03T01:44:34;11.10;81.70
14585;DHT22;7379;51.506;11.876;2022-11-03T01:47:14;11.10;81.60
14585;DHT22;7379;51.506;11.876;2022-11-03T01:49:47;11.10;81.70
14585;DHT22;7379;51.506;11.876;2022-11-03T01:52:20;11.10;81.70
14585;DHT22;7379;51.506;11.876;2022-11-03T01:54:52;11.10;81.80
14585;DHT22;7379;51.506;11.876;2022-11-03T01:57:26;11.10;81.70
14585;DHT22;7379;51.506;11.876;2022-11-03T01:59:55;11.10;81.80
14585;DHT22;7379;51.506;11.876;2022-11-03T02:02:23;11.10;81.80
14585;DHT22;7379;51.506;11.876;2022-11-03T02:04:50;11.00;81.70
14585;DHT22;7379;51.506;11.876;2022-11-03T02:07:23;11.00;81.70
14585;DHT22;7379;51.506;11.876;2022-11-03T02:09:50;11.00;81.70
14585;DHT22;7379;51.506;11.876;2022-11-03T02:12:18;11.00;81.80
14585;DHT22;7379;51.506;11.876;2022-11-03T02:14:50;11.00;81.80
14585;DHT22;7379;51.506;11.876;2022-11-03T02:17:20;11.00;81.80
14585;DHT22;7379;51.506;11.876;2022-11-03T02:19:50;11.00;81.90
14585;DHT22;7379;51.506;11.876;2022-11-03T02:22:35;11.00;81.90
14585;DHT22;7379;51.506;11.876;2022-11-03T02:25:13;11.00;81.90
14585;DHT22;7379;51.506;11.876;2022-11-03T02:27:43;11.00;82.00
14585;DHT22;7379;51.506;11.876;2022-11-03T02:30:10;11.00;82.00
14585;DHT22;7379;51.506;11.876;2022-11-03T02:32:42;11.00;82.00
14585;DHT22;7379;51.506;11.876;2022-11-03T02:35:14;11.00;82.00
14585;DHT22;7379;51.506;11.876;2022-11-03T02:37:48;10.90;81.90
14585;DHT22;7379;51.506;11.876;2022-11-03T02:40:23;10.90;81.90
14585;DHT22;7379;51.506;11.876;2022-11-03T02:42:53;10.90;81.90
14585;DHT22;7379;51.506;11.876;2022-11-03T02:45:22;10.90;81.90
14585;DHT22;7379;51.506;11.876;2022-11-03T02:47:52;10.90;81.90
14585;DHT22;7379;51.506;11.876;2022-11-03T02:50:20;10.90;81.90
14585;DHT22;7379;51.506;11.876;2022-11-03T02:52:51;10.90;81.90
14585;DHT22;7379;51.506;11.876;2022-11-03T02:55:30;10.90;82.00
14585;DHT22;7379;51.506;11.876;2022-11-03T02:58:06;10.90;82.00
14585;DHT22;7379;51.506;11.876;2022-11-03T03:00:42;10.80;81.90
14585;DHT22;7379;51.506;11.876;2022-11-03T03:03:16;10.80;81.90
14585;DHT22;7379;51.506;11.876;2022-11-03T03:05:44;10.80;81.90
14585;DHT22;7379;51.506;11.876;2022-11-03T03:08:13;10.90;82.00
14585;DHT22;7379;51.506;11.876;2022-11-03T03:10:42;10.80;81.90
14585;DHT22;7379;51.506;11.876;2022-11-03T03:13:13;10.80;82.00
14585;DHT22;7379;51.506;11.876;2022-11-03T03:15:45;10.80;82.00
14585;DHT22;7379;51.506;11.876;2022-11-03T03:18:19;10.80;82.00
14585;DHT22;7379;51.506;11.876;2022-11-03T03:20:52;10.80;82.00
14585;DHT22;7379;51.506;11.876;2022-11-03T03:23:22;10.80;82.00
14585;DHT22;7379;51.506;11.876;2022-11-03T03:25:53;10.80;82.00
14585;DHT22;7379;51.506;11.876;2022-11-03T03:28:23;10.80;82.00
14585;DHT22;7379;51.506;11.876;2022-11-03T03:30:53;10.80;82.10
14585;DHT22;7379;51.506;11.876;2022-11-03T03:33:24;10.80;82.10
14585;DHT22;7379;51.506;11.876;2022-11-03T03:35:52;10.80;82.10
14585;DHT22;7379;51.506;11.876;2022-11-03T03:38:22;10.70;81.90
14585;DHT22;7379;51.506;11.876;2022-11-03T03:40:51;10.70;82.00
14585;DHT22;7379;51.506;11.876;2022-11-03T03:43:20;10.70;82.00
14585;DHT22;7379;51.506;11.876;2022-11-03T03:45:51;10.70;82.00
14585;DHT22;7379;51.506;11.876;2022-11-03T03:48:20;10.70;82.00
14585;DHT22;7379;51.506;11.876;2022-11-03T03:50:47;10.70;82.10
14585;DHT22;7379;51.506;11.876;2022-11-03T03:53:17;10.70;82.10
14585;DHT22;7379;51.506;11.876;2022-11-03T03:55:47;10.70;82.10
14585;DHT22;7379;51.506;11.876;2022-11-03T03:58:15;10.70;82.10
14585;DHT22;7379;51.506;11.876;2022-11-03T04:00:42;10.70;82.20
14585;DHT22;7379;51.506;11.876;2022-11-03T04:03:14;10.70;82.20
14585;DHT22;7379;51.506;11.876;2022-11-03T04:05:43;10.70;82.20
14585;DHT22;7379;51.506;11.876;2022-11-03T04:08:10;10.70;82.30
14585;DHT22;7379;51.506;11.876;2022-11-03T04:10:37;10.70;82.20
14585;DHT22;7379;51.506;11.876;2022-11-03T04:13:04;10.70;82.30
14585;DHT22;7379;51.506;11.876;2022-11-03T04:15:49;10.70;82.30
14585;DHT22;7379;51.506;11.876;2022-11-03T04:18:35;10.60;82.20
14585;DHT22;7379;51.506;11.876;2022-11-03T04:21:19;10.60;82.20
14585;DHT22;7379;51.506;11.876;2022-11-03T04:24:03;10.60;82.30
14585;DHT22;7379;51.506;11.876;2022-11-03T04:26:30;10.60;82.30
14585;DHT22;7379;51.506;11.876;2022-11-03T04:28:57;10.60;82.30
14585;DHT22;7379;51.506;11.876;2022-11-03T04:31:25;10.60;82.20
14585;DHT22;7379;51.506;11.876;2022-11-03T04:33:54;10.60;82.30
14585;DHT22;7379;51.506;11.876;2022-11-03T04:36:23;10.60;82.40
14585;DHT22;7379;51.506;11.876;2022-11-03T04:38:51;10.60;82.40
14585;DHT22;7379;51.506;11.876;2022-11-03T04:41:20;10.60;82.40
14585;DHT22;7379;51.506;11.876;2022-11-03T04:43:47;10.50;82.20
14585;DHT22;7379;51.506;11.876;2022-11-03T04:46:16;10.60;82.30
14585;DHT22;7379;51.506;11.876;2022-11-03T04:48:48;10.50;82.20
14585;DHT22;7379;51.506;11.876;2022-11-03T04:51:20;10.50;82.20
14585;DHT22;7379;51.506;11.876;2022-11-03T04:53:49;10.50;82.20
14585;DHT22;7379;51.506;11.876;2022-11-03T04:56:21;10.50;82.20
14585;DHT22;7379;51.506;11.876;2022-11-03T04:58:49;10.50;82.30
14585;DHT22;7379;51.506;11.876;2022-11-03T05:01:18;10.50;82.30
14585;DHT22;7379;51.506;11.876;2022-11-03T05:03:48;10.50;82.30
14585;DHT22;7379;51.506;11.876;2022-11-03T05:06:18;10.50;82.30
14585;DHT22;7379;51.506;11.876;2022-11-03T05:08:48;10.50;82.20
14585;DHT22;7379;51.506;11.876;2022-11-03T05:11:19;10.50;82.20
14585;DHT22;7379;51.506;11.876;2022-11-03T05:13:47;10.40;82.20
14585;DHT22;7379;51.506;11.876;2022-11-03T05:16:14;10.40;82.20
14585;DHT22;7379;51.506;11.876;2022-11-03T05:18:43;10.40;82.10
14585;DHT22;7379;51.506;11.876;2022-11-03T05:21:14;10.40;82.20
14585;DHT22;7379;51.506;11.876;2022-11-03T05:23:44;10.40;82.20
14585;DHT22;7379;51.506;11.876;2022-11-03T05:26:16;10.40;82.20
14585;DHT22;7379;51.506;11.876;2022-11-03T05:28:46;10.40;82.20
14585;DHT22;7379;51.506;11.876;2022-11-03T05:31:22;10.40;82.20
14585;DHT22;7379;51.506;11.876;2022-11-03T05:33:50;10.40;82.20
14585;DHT22;7379;51.506;11.876;2022-11-03T05:36:20;10.40;82.20
14585;DHT22;7379;51.506;11.876;2022-11-03T05:38:49;10.40;82.30
14585;DHT22;7379;51.506;11.876;2022-11-03T05:41:21;10.30;82.20
14585;DHT22;7379;51.506;11.876;2022-11-03T05:43:54;10.40;82.30
14585;DHT22;7379;51.506;11.876;2022-11-03T05:46:22;10.30;82.20
14585;DHT22;7379;51.506;11.876;2022-11-03T05:48:50;10.30;82.20
14585;DHT22;7379;51.506;11.876;2022-11-03T05:51:20;10.30;82.20
14585;DHT22;7379;51.506;11.876;2022-11-03T05:53:51;10.30;82.30
14585;DHT22;7379;51.506;11.876;2022-11-03T05:56:21;10.30;82.30
14585;DHT22;7379;51.506;11.876;2022-11-03T05:58:50;10.30;82.20
14585;DHT22;7379;51.506;11.876;2022-11-03T06:01:22;10.30;82.20
14585;DHT22;7379;51.506;11.876;2022-11-03T06:03:50;10.30;82.30
14585;DHT22;7379;51.506;11.876;2022-11-03T06:06:19;10.30;82.20
14585;DHT22;7379;51.506;11.876;2022-11-03T06:08:48;10.30;82.30
14585;DHT22;7379;51.506;11.876;2022-11-03T06:11:23;10.20;82.20
14585;DHT22;7379;51.506;11.876;2022-11-03T06:13:51;10.30;82.30
14585;DHT22;7379;51.506;11.876;2022-11-03T06:16:31;10.20;82.10
14585;DHT22;7379;51.506;11.876;2022-11-03T06:19:09;10.20;82.20
14585;DHT22;7379;51.506;11.876;2022-11-03T06:21:38;10.20;82.20
14585;DHT22;7379;51.506;11.876;2022-11-03T06:24:09;10.20;82.20
14585;DHT22;7379;51.506;11.876;2022-11-03T06:26:37;10.20;82.20
14585;DHT22;7379;51.506;11.876;2022-11-03T06:29:03;10.20;82.10
14585;DHT22;7379;51.506;11.876;2022-11-03T06:31:31;10.20;82.20
14585;DHT22;7379;51.506;11.876;2022-11-03T06:34:00;10.20;82.20
14585;DHT22;7379;51.506;11.876;2022-11-03T06:36:31;10.20;82.20
14585;DHT22;7379;51.506;11.876;2022-11-03T06:39:02;10.20;82.20
14585;DHT22;7379;51.506;11.876;2022-11-03T06:41:31;10.20;82.10
14585;DHT22;7379;51.506;11.876;2022-11-03T06:44:02;10.20;82.10
14585;DHT22;7379;51.506;11.876;2022-11-03T06:46:42;10.20;82.00
14585;DHT22;7379;51.506;11.876;2022-11-03T06:49:26;10.10;81.90
14585;DHT22;7379;51.506;11.876;2022-11-03T06:51:54;10.10;81.90
14585;DHT22;7379;51.506;11.876;2022-11-03T06:54:20;10.10;81.90
14585;DHT22;7379;51.506;11.876;2022-11-03T06:56:49;10.10;81.90
14585;DHT22;7379;51.506;11.876;2022-11-03T06:59:17;10.10;81.90
14585;DHT22;7379;51.506;11.876;2022-11-03T07:01:46;10.10;81.90
14585;DHT22;7379;51.506;11.876;2022-11-03T07:04:18;10.00;81.80
14585;DHT22;7379;51.506;11.876;2022-11-03T07:06:46;10.10;82.00
14585;DHT22;7379;51.506;11.876;2022-11-03T07:09:15;10.10;82.00
14585;DHT22;7379;51.506;11.876;2022-11-03T07:11:44;10.10;82.00
14585;DHT22;7379;51.506;11.876;2022-11-03T07:14:15;10.10;82.00
14585;DHT22;7379;51.506;11.876;2022-11-03T07:16:45;10.00;81.90
14585;DHT22;7379;51.506;11.876;2022-11-03T07:19:17;10.00;81.90
14585;DHT22;7379;51.506;11.876;2022-11-03T07:21:45;10.10;82.10
14585;DHT22;7379;51.506;11.876;2022-11-03T07:24:17;10.00;81.90
14585;DHT22;7379;51.506;11.876;2022-11-03T07:26:45;10.00;81.90
14585;DHT22;7379;51.506;11.876;2022-11-03T07:29:18;10.00;81.90
14585;DHT22;7379;51.506;11.876;2022-11-03T07:31:46;10.00;81.90
14585;DHT22;7379;51.506;11.876;2022-11-03T07:34:17;10.00;82.00
14585;DHT22;7379;51.506;11.876;2022-11-03T07:36:46;10.00;82.10
14585;DHT22;7379;51.506;11.876;2022-11-03T07:39:18;10.00;82.10
14585;DHT22;7379;51.506;11.876;2022-11-03T07:41:45;10.00;82.20
14585;DHT22;7379;51.506;11.876;2022-11-03T07:44:16;10.00;82.20
14585;DHT22;7379;51.506;11.876;2022-11-03T07:46:46;10.00;82.30
14585;DHT22;7379;51.506;11.876;2022-11-03T07:49:23;10.00;82.30
14585;DHT22;7379;51.506;11.876;2022-11-03T07:51:52;10.00;82.40
14585;DHT22;7379;51.506;11.876;2022-11-03T07:54:21;10.00;82.40
14585;DHT22;7379;51.506;11.876;2022-11-03T07:56:51;10.10;83.30
14585;DHT22;7379;51.506;11.876;2022-11-03T07:59:22;10.00;82.50
14585;DHT22;7379;51.506;11.876;2022-11-03T08:01:50;10.10;82.60
14585;DHT22;7379;51.506;11.876;2022-11-03T08:04:20;10.00;82.50
14585;DHT22;7379;51.506;11.876;2022-11-03T08:06:47;10.10;82.70
14585;DHT22;7379;51.506;11.876;2022-11-03T08:09:14;10.10;82.70
14585;DHT22;7379;51.506;11.876;2022-11-03T08:11:41;10.10;82.70
14585;DHT22;7379;51.506;11.876;2022-11-03T08:14:08;10.10;82.80
14585;DHT22;7379;51.506;11.876;2022-11-03T08:16:36;10.10;82.90
14585;DHT22;7379;51.506;11.876;2022-11-03T08:19:03;10.10;82.90
14585;DHT22;7379;51.506;11.876;2022-11-03T08:21:29;10.10;82.90
14585;DHT22;7379;51.506;11.876;2022-11-03T08:23:56;10.10;83.00
14585;DHT22;7379;51.506;11.876;2022-11-03T08:26:23;10.10;83.00
14585;DHT22;7379;51.506;11.876;2022-11-03T08:28:50;10.10;83.00
14585;DHT22;7379;51.506;11.876;2022-11-03T08:31:17;10.10;83.00
14585;DHT22;7379;51.506;11.876;2022-11-03T08:33:45;10.10;83.10
14585;DHT22;7379;51.506;11.876;2022-11-03T08:36:12;10.10;83.10
14585;DHT22;7379;51.506;11.876;2022-11-03T08:38:39;10.10;83.10
14585;DHT22;7379;51.506;11.876;2022-11-03T08:41:05;10.10;83.10
14585;DHT22;7379;51.506;11.876;2022-11-03T08:43:32;10.20;83.30
14585;DHT22;7379;51.506;11.876;2022-11-03T08:45:59;10.10;83.20
14585;DHT22;7379;51.506;11.876;2022-11-03T08:48:26;10.20;83.40
14585;DHT22;7379;51.506;11.876;2022-11-03T08:50:54;10.20;83.40
14585;DHT22;7379;51.506;11.876;2022-11-03T08:53:23;10.20;83.40
14585;DHT22;7379;51.506;11.876;2022-11-03T08:55:50;10.20;83.40
14585;DHT22;7379;51.506;11.876;2022-11-03T08:58:17;10.20;83.40
14585;DHT22;7379;51.506;11.876;2022-11-03T09:00:44;10.20;83.40
14585;DHT22;7379;51.506;11.876;2022-11-03T09:03:10;10.20;83.50
14585;DHT22;7379;51.506;11.876;2022-11-03T09:05:37;10.20;83.50
14585;DHT22;7379;51.506;11.876;2022-11-03T09:08:06;10.20;84.20
14585;DHT22;7379;51.506;11.876;2022-11-03T09:10:33;10.20;83.50
14585;DHT22;7379;51.506;11.876;2022-11-03T09:12:59;10.20;83.60
14585;DHT22;7379;51.506;11.876;2022-11-03T09:15:26;10.20;83.60
14585;DHT22;7379;51.506;11.876;2022-11-03T09:17:53;10.20;83.70
14585;DHT22;7379;51.506;11.876;2022-11-03T09:20:20;10.20;83.70
14585;DHT22;7379;51.506;11.876;2022-11-03T09:22:47;10.30;83.80
14585;DHT22;7379;51.506;11.876;2022-11-03T09:25:15;10.30;83.80
14585;DHT22;7379;51.506;11.876;2022-11-03T09:27:42;10.30;83.80
14585;DHT22;7379;51.506;11.876;2022-11-03T09:30:10;10.30;83.80
14585;DHT22;7379;51.506;11.876;2022-11-03T09:32:37;10.30;83.80
14585;DHT22;7379;51.506;11.876;2022-11-03T09:35:05;10.30;83.80
14585;DHT22;7379;51.506;11.876;2022-11-03T09:37:33;10.30;83.80
14585;DHT22;7379;51.506;11.876;2022-11-03T09:40:00;10.30;83.80
14585;DHT22;7379;51.506;11.876;2022-11-03T09:42:29;10.30;83.80
14585;DHT22;7379;51.506;11.876;2022-11-03T09:44:58;10.30;83.90
14585;DHT22;7379;51.506;11.876;2022-11-03T09:47:29;10.30;83.90
14585;DHT22;7379;51.506;11.876;2022-11-03T09:49:58;10.30;84.00
14585;DHT22;7379;51.506;11.876;2022-11-03T09:52:26;10.30;84.00
14585;DHT22;7379;51.506;11.876;2022-11-03T09:54:53;10.40;84.00
14585;DHT22;7379;51.506;11.876;2022-11-03T09:57:21;10.40;84.10
14585;DHT22;7379;51.506;11.876;2022-11-03T09:59:50;10.40;84.20
14585;DHT22;7379;51.506;11.876;2022-11-03T10:02:24;10.40;84.20
14585;DHT22;7379;51.506;11.876;2022-11-03T10:04:52;10.40;84.10
14585;DHT22;7379;51.506;11.876;2022-11-03T10:07:20;10.40;84.10
14585;DHT22;7379;51.506;11.876;2022-11-03T10:09:49;10.40;84.10
14585;DHT22;7379;51.506;11.876;2022-11-03T10:12:17;10.40;84.20
14585;DHT22;7379;51.506;11.876;2022-11-03T10:14:45;10.40;84.20
14585;DHT22;7379;51.506;11.876;2022-11-03T10:17:16;10.40;84.20
14585;DHT22;7379;51.506;11.876;2022-11-03T10:19:46;10.50;84.30
14585;DHT22;7379;51.506;11.876;2022-11-03T10:22:14;10.50;84.40
14585;DHT22;7379;51.506;11.876;2022-11-03T10:24:41;10.50;84.20
14585;DHT22;7379;51.506;11.876;2022-11-03T10:27:20;10.50;84.20
14585;DHT22;7379;51.506;11.876;2022-11-03T10:30:04;10.50;84.30
14585;DHT22;7379;51.506;11.876;2022-11-03T10:32:34;10.50;84.50
14585;DHT22;7379;51.506;11.876;2022-11-03T10:35:01;10.50;84.50
14585;DHT22;7379;51.506;11.876;2022-11-03T10:37:29;10.50;84.50
14585;DHT22;7379;51.506;11.876;2022-11-03T10:39:56;10.50;84.40
14585;DHT22;7379;51.506;11.876;2022-11-03T10:42:25;10.60;84.50
14585;DHT22;7379;51.506;11.876;2022-11-03T10:44:54;10.60;85.20
14585;DHT22;7379;51.506;11.876;2022-11-03T10:47:35;10.60;84.40
14585;DHT22;7379;51.506;11.876;2022-11-03T10:50:18;10.60;84.20
14585;DHT22;7379;51.506;11.876;2022-11-03T10:52:45;10.60;84.30
14585;DHT22;7379;51.506;11.876;2022-11-03T10:55:12;10.70;84.40
14585;DHT22;7379;51.506;11.876;2022-11-03T10:57:39;10.70;84.20
14585;DHT22;7379;51.506;11.876;2022-11-03T11:00:12;10.80;84.30
14585;DHT22;7379;51.506;11.876;2022-11-03T11:02:42;10.80;84.50
14585;DHT22;7379;51.506;11.876;2022-11-03T11:05:13;10.80;84.20
14585;DHT22;7379;51.506;11.876;2022-11-03T11:07:42;10.80;84.10
14585;DHT22;7379;51.506;11.876;2022-11-03T11:10:12;10.80;84.40
14585;DHT22;7379;51.506;11.876;2022-11-03T11:13:05;10.90;84.60
14585;DHT22;7379;51.506;11.876;2022-11-03T11:15:39;10.90;84.20
14585;DHT22;7379;51.506;11.876;2022-11-03T11:18:09;10.90;84.10
14585;DHT22;7379;51.506;11.876;2022-11-03T11:20:37;10.90;84.20
14585;DHT22;7379;51.506;11.876;2022-11-03T11:26:30;11.00;84.00
14585;DHT22;7379;51.506;11.876;2022-11-03T11:31:57;11.00;83.80
14585;DHT22;7379;51.506;11.876;2022-11-03T11:34:41;11.10;83.70
14585;DHT22;7379;51.506;11.876;2022-11-03T11:37:33;11.20;83.80
14585;DHT22;7379;51.506;11.876;2022-11-03T11:40:01;11.20;83.70
14585;DHT22;7379;51.506;11.876;2022-11-03T11:42:29;11.20;83.70
14585;DHT22;7379;51.506;11.876;2022-11-03T11:44:57;11.30;83.50
14585;DHT22;7379;51.506;11.876;2022-11-03T11:50:29;11.30;83.10
14585;DHT22;7379;51.506;11.876;2022-11-03T11:53:11;11.30;83.00
14585;DHT22;7379;51.506;11.876;2022-11-03T11:55:44;11.30;83.00
14585;DHT22;7379;51.506;11.876;2022-11-03T11:58:17;11.40;83.10
14585;DHT22;7379;51.506;11.876;2022-11-03T12:00:54;11.40;83.00
14585;DHT22;7379;51.506;11.876;2022-11-03T12:03:27;11.40;82.80
14585;DHT22;7379;51.506;11.876;2022-11-03T12:05:55;11.40;82.80
14585;DHT22;7379;51.506;11.876;2022-11-03T12:08:27;11.40;82.70
14585;DHT22;7379;51.506;11.876;2022-11-03T12:10:57;11.40;82.90
14585;DHT22;7379;51.506;11.876;2022-11-03T12:13:46;11.40;82.80
14585;DHT22;7379;51.506;11.876;2022-11-03T12:16:30;11.40;82.70
14585;DHT22;7379;51.506;11.876;2022-11-03T12:21:48;11.50;82.80
14585;DHT22;7379;51.506;11.876;2022-11-03T12:24:33;11.50;82.70
14585;DHT22;7379;51.506;11.876;2022-11-03T12:27:01;11.50;82.60
14585;DHT22;7379;51.506;11.876;2022-11-03T12:29:28;11.50;82.70
14585;DHT22;7379;51.506;11.876;2022-11-03T12:31:55;11.50;82.80
14585;DHT22;7379;51.506;11.876;2022-11-03T12:34:22;11.50;82.80
14585;DHT22;7379;51.506;11.876;2022-11-03T12:36:50;11.50;82.80
14585;DHT22;7379;51.506;11.876;2022-11-03T12:39:17;11.60;82.70
14585;DHT22;7379;51.506;11.876;2022-11-03T12:41:44;11.60;82.70
14585;DHT22;7379;51.506;11.876;2022-11-03T12:44:11;11.60;82.60
14585;DHT22;7379;51.506;11.876;2022-11-03T12:46:38;11.60;82.60
14585;DHT22;7379;51.506;11.876;2022-11-03T12:49:04;11.60;82.50
14585;DHT22;7379;51.506;11.876;2022-11-03T12:51:31;11.60;82.60
14585;DHT22;7379;51.506;11.876;2022-11-03T12:53:59;11.60;82.70
14585;DHT22;7379;51.506;11.876;2022-11-03T12:56:26;11.60;82.80
14585;DHT22;7379;51.506;11.876;2022-11-03T12:58:53;11.50;82.80
14585;DHT22;7379;51.506;11.876;2022-11-03T13:01:20;11.50;82.80
14585;DHT22;7379;51.506;11.876;2022-11-03T13:03:46;11.50;82.90
14585;DHT22;7379;51.506;11.876;2022-11-03T13:06:13;11.50;82.80
14585;DHT22;7379;51.506;11.876;2022-11-03T13:08:40;11.50;82.80
14585;DHT22;7379;51.506;11.876;2022-11-03T13:11:08;11.60;83.00
14585;DHT22;7379;51.506;11.876;2022-11-03T13:13:49;11.60;83.00
14585;DHT22;7379;51.506;11.876;2022-11-03T13:16:16;11.60;83.00
14585;DHT22;7379;51.506;11.876;2022-11-03T13:18:43;11.60;83.00
14585;DHT22;7379;51.506;11.876;2022-11-03T13:21:09;11.60;82.90
14585;DHT22;7379;51.506;11.876;2022-11-03T13:23:37;11.60;82.80
14585;DHT22;7379;51.506;11.876;2022-11-03T13:26:04;11.60;82.80
14585;DHT22;7379;51.506;11.876;2022-11-03T13:28:32;11.60;82.80
14585;DHT22;7379;51.506;11.876;2022-11-03T13:30:59;11.60;82.70
14585;DHT22;7379;51.506;11.876;2022-11-03T13:33:26;11.60;82.80
14585;DHT22;7379;51.506;11.876;2022-11-03T13:35:53;11.60;82.80
14585;DHT22;7379;51.506;11.876;2022-11-03T13:38:20;11.60;82.70
14585;DHT22;7379;51.506;11.876;2022-11-03T13:40:46;11.60;82.70
14585;DHT22;7379;51.506;11.876;2022-11-03T13:43:13;11.60;82.60
14585;DHT22;7379;51.506;11.876;2022-11-03T13:45:41;11.60;82.50
14585;DHT22;7379;51.506;11.876;2022-11-03T13:48:08;11.60;82.50
14585;DHT22;7379;51.506;11.876;2022-11-03T13:50:35;11.70;82.70
14585;DHT22;7379;51.506;11.876;2022-11-03T13:53:01;11.60;82.50
14585;DHT22;7379;51.506;11.876;2022-11-03T13:55:28;11.60;82.30
14585;DHT22;7379;51.506;11.876;2022-11-03T13:57:55;11.70;82.30
14585;DHT22;7379;51.506;11.876;2022-11-03T14:00:22;11.70;82.30
14585;DHT22;7379;51.506;11.876;2022-11-03T14:02:50;11.70;82.30
14585;DHT22;7379;51.506;11.876;2022-11-03T14:05:18;11.70;82.20
14585;DHT22;7379;51.506;11.876;2022-11-03T14:07:44;11.70;82.10
14585;DHT22;7379;51.506;11.876;2022-11-03T14:10:11;11.70;82.00
14585;DHT22;7379;51.506;11.876;2022-11-03T14:12:38;11.70;81.90
14585;DHT22;7379;51.506;11.876;2022-11-03T14:15:05;11.70;81.90
14585;DHT22;7379;51.506;11.876;2022-11-03T14:17:33;11.70;81.90
14585;DHT22;7379;51.506;11.876;2022-11-03T14:20:01;11.80;82.00
14585;DHT22;7379;51.506;11.876;2022-11-03T14:22:28;11.80;82.00
14585;DHT22;7379;51.506;11.876;2022-11-03T14:24:55;11.80;82.10
14585;DHT22;7379;51.506;11.876;2022-11-03T14:27:22;11.70;81.90
14585;DHT22;7379;51.506;11.876;2022-11-03T14:29:49;11.80;82.00
14585;DHT22;7379;51.506;11.876;2022-11-03T14:32:17;11.80;82.20
14585;DHT22;7379;51.506;11.876;2022-11-03T14:34:44;11.80;82.10
14585;DHT22;7379;51.506;11.876;2022-11-03T14:37:14;11.80;82.10
14585;DHT22;7379;51.506;11.876;2022-11-03T14:39:40;11.80;82.20
14585;DHT22;7379;51.506;11.876;2022-11-03T14:42:10;11.80;82.20
14585;DHT22;7379;51.506;11.876;2022-11-03T14:44:40;11.80;82.30
14585;DHT22;7379;51.506;11.876;2022-11-03T14:47:08;11.80;82.30
14585;DHT22;7379;51.506;11.876;2022-11-03T14:49:35;11.80;82.30
14585;DHT22;7379;51.506;11.876;2022-11-03T14:52:04;11.80;82.40
14585;DHT22;7379;51.506;11.876;2022-11-03T14:54:33;11.70;82.30
14585;DHT22;7379;51.506;11.876;2022-11-03T14:57:00;11.80;82.50
14585;DHT22;7379;51.506;11.876;2022-11-03T14:59:27;11.70;82.40
14585;DHT22;7379;51.506;11.876;2022-11-03T15:01:54;11.80;82.60
14585;DHT22;7379;51.506;11.876;2022-11-03T15:04:21;11.80;82.60
14585;DHT22;7379;51.506;11.876;2022-11-03T15:06:48;11.80;82.70
14585;DHT22;7379;51.506;11.876;2022-11-03T15:09:15;11.70;82.60
14585;DHT22;7379;51.506;11.876;2022-11-03T15:11:44;11.70;82.60
14585;DHT22;7379;51.506;11.876;2022-11-03T15:14:12;11.70;82.70
14585;DHT22;7379;51.506;11.876;2022-11-03T15:16:39;11.70;82.70
14585;DHT22;7379;51.506;11.876;2022-11-03T15:19:06;11.70;82.80
14585;DHT22;7379;51.506;11.876;2022-11-03T15:21:33;11.70;82.80
14585;DHT22;7379;51.506;11.876;2022-11-03T15:24:00;11.70;82.80
14585;DHT22;7379;51.506;11.876;2022-11-03T15:26:27;11.70;82.80
14585;DHT22;7379;51.506;11.876;2022-11-03T15:28:55;11.70;82.80
14585;DHT22;7379;51.506;11.876;2022-11-03T15:31:22;11.70;82.90
14585;DHT22;7379;51.506;11.876;2022-11-03T15:33:49;11.70;82.90
14585;DHT22;7379;51.506;11.876;2022-11-03T15:36:15;11.70;83.00
14585;DHT22;7379;51.506;11.876;2022-11-03T15:38:42;11.70;83.00
14585;DHT22;7379;51.506;11.876;2022-11-03T15:41:09;11.70;83.00
14585;DHT22;7379;51.506;11.876;2022-11-03T15:43:42;11.70;83.00
14585;DHT22;7379;51.506;11.876;2022-11-03T15:46:10;11.70;83.00
14585;DHT22;7379;51.506;11.876;2022-11-03T15:48:37;11.60;83.00
14585;DHT22;7379;51.506;11.876;2022-11-03T15:51:04;11.70;83.10
14585;DHT22;7379;51.506;11.876;2022-11-03T15:53:32;11.70;83.10
14585;DHT22;7379;51.506;11.876;2022-11-03T15:55:59;11.70;83.10